Terminal Aerodrome Forecast
Issued by NWS

Home | Current Version | Previous Version | Text Only | Print | Product List | Glossary On
Versions: 1 2 3 4 5 6 7 8 9 10 11 12 13
000
FTUS44 KSJT 230520
TAFBBD
TAF
KBBD 230520Z 2306/2406 VRB04KT P6SM BKN040
      TEMPO 2306/2308 5SM -TSRA BKN025CB
     FM231200 01010KT P6SM BKN025
     FM231900 02010KT P6SM VCTS BKN035CB
     FM240200 03005KT P6SM SCT250
      AMD NOT SKED=

USA.gov is the U.S. government's official web portal to all federal, state and local government web resources and services.